sensor_id;sensor_type;location;lat;lon;timestamp;temperature;humidity
2300;DHT22;1158;48.750;9.078;2023-09-19T21:59:19;10.90;99.90
2300;DHT22;1158;48.750;9.078;2023-09-19T22:01:47;11.00;99.90
2300;DHT22;1158;48.750;9.078;2023-09-19T22:04:13;10.90;99.90
2300;DHT22;1158;48.750;9.078;2023-09-19T22:06:42;10.90;99.90
2300;DHT22;1158;48.750;9.078;2023-09-19T22:09:09;10.90;99.90
2300;DHT22;1158;48.750;9.078;2023-09-19T22:11:36;10.90;99.90
2300;DHT22;1158;48.750;9.078;2023-09-19T22:14:05;10.90;99.90
2300;DHT22;1158;48.750;9.078;2023-09-19T22:16:32;10.80;99.90
2300;DHT22;1158;48.750;9.078;2023-09-19T22:19:00;10.80;99.90
2300;DHT22;1158;48.750;9.078;2023-09-19T22:21:27;10.80;99.90
2300;DHT22;1158;48.750;9.078;2023-09-19T22:23:58;10.70;99.90
2300;DHT22;1158;48.750;9.078;2023-09-19T22:26:25;10.70;99.90
2300;DHT22;1158;48.750;9.078;2023-09-19T22:28:54;10.60;99.90
2300;DHT22;1158;48.750;9.078;2023-09-19T22:31:23;10.50;99.90
2300;DHT22;1158;48.750;9.078;2023-09-19T22:33:53;10.50;99.90
2300;DHT22;1158;48.750;9.078;2023-09-19T22:36:22;10.50;99.90
2300;DHT22;1158;48.750;9.078;2023-09-19T22:38:49;10.50;99.90
2300;DHT22;1158;48.750;9.078;2023-09-19T22:41:17;10.50;99.90
2300;DHT22;1158;48.750;9.078;2023-09-19T22:43:47;10.50;99.90
2300;DHT22;1158;48.750;9.078;2023-09-19T22:46:16;10.40;99.90
2300;DHT22;1158;48.750;9.078;2023-09-19T22:48:44;10.40;99.90
2300;DHT22;1158;48.750;9.078;2023-09-19T22:51:13;10.40;99.90
2300;DHT22;1158;48.750;9.078;2023-09-19T22:53:49;10.40;99.90
2300;DHT22;1158;48.750;9.078;2023-09-19T22:56:18;10.40;99.90
2300;DHT22;1158;48.750;9.078;2023-09-19T22:58:47;10.40;99.90
2300;DHT22;1158;48.750;9.078;2023-09-19T23:01:16;10.40;99.90
2300;DHT22;1158;48.750;9.078;2023-09-19T23:03:53;10.30;99.90
2300;DHT22;1158;48.750;9.078;2023-09-19T23:06:40;10.30;99.90
2300;DHT22;1158;48.750;9.078;2023-09-19T23:09:10;10.40;99.90
2300;DHT22;1158;48.750;9.078;2023-09-19T23:11:41;10.40;99.90
2300;DHT22;1158;48.750;9.078;2023-09-19T23:14:09;10.40;99.90
2300;DHT22;1158;48.750;9.078;2023-09-19T23:16:36;10.30;99.90
2300;DHT22;1158;48.750;9.078;2023-09-19T23:19:08;10.20;99.90
2300;DHT22;1158;48.750;9.078;2023-09-19T23:21:40;10.20;99.90
2300;DHT22;1158;48.750;9.078;2023-09-19T23:24:12;10.10;99.90
2300;DHT22;1158;48.750;9.078;2023-09-19T23:26:41;10.10;99.90
2300;DHT22;1158;48.750;9.078;2023-09-19T23:29:11;10.10;99.90
2300;DHT22;1158;48.750;9.078;2023-09-19T23:31:37;10.00;99.90
2300;DHT22;1158;48.750;9.078;2023-09-19T23:34:06;10.00;99.90
2300;DHT22;1158;48.750;9.078;2023-09-19T23:36:33;10.00;99.90
2300;DHT22;1158;48.750;9.078;2023-09-19T23:39:00;10.00;99.90
2300;DHT22;1158;48.750;9.078;2023-09-19T23:41:28;10.00;99.90
2300;DHT22;1158;48.750;9.078;2023-09-19T23:43:56;10.00;99.90
2300;DHT22;1158;48.750;9.078;2023-09-19T23:46:24;10.00;99.90
2300;DHT22;1158;48.750;9.078;2023-09-19T23:48:51;10.00;99.90
2300;DHT22;1158;48.750;9.078;2023-09-19T23:51:19;10.00;99.90
2300;DHT22;1158;48.750;9.078;2023-09-19T23:53:47;10.00;99.90
2300;DHT22;1158;48.750;9.078;2023-09-19T23:56:13;9.90;99.90
2300;DHT22;1158;48.750;9.078;2023-09-19T23:58:42;9.90;99.90
